sensor_id;sensor_type;location;lat;lon;timestamp;P1;durP1;ratioP1;P2;durP2;ratioP2
68398;SDS011;56258;52.196;13.868;2022-07-26T00:00:08;6.15;;;3.17;;
68398;SDS011;56258;52.196;13.868;2022-07-26T00:02:38;6.40;;;3.30;;
68398;SDS011;56258;52.196;13.868;2022-07-26T00:05:13;6.22;;;3.22;;
68398;SDS011;56258;52.196;13.868;2022-07-26T00:07:41;5.70;;;2.87;;
68398;SDS011;56258;52.196;13.868;2022-07-26T00:10:08;6.45;;;3.00;;
68398;SDS011;56258;52.196;13.868;2022-07-26T00:12:36;6.15;;;3.22;;
68398;SDS011;56258;52.196;13.868;2022-07-26T00:15:04;6.63;;;2.90;;
68398;SDS011;56258;52.196;13.868;2022-07-26T00:17:32;6.70;;;2.88;;
68398;SDS011;56258;52.196;13.868;2022-07-26T00:19:59;6.47;;;3.13;;
68398;SDS011;56258;52.196;13.868;2022-07-26T00:22:25;6.63;;;2.95;;
68398;SDS011;56258;52.196;13.868;2022-07-26T00:25:02;6.40;;;3.05;;
68398;SDS011;56258;52.196;13.868;2022-07-26T00:27:32;6.07;;;3.10;;
68398;SDS011;56258;52.196;13.868;2022-07-26T00:30:05;6.20;;;3.33;;
68398;SDS011;56258;52.196;13.868;2022-07-26T00:32:34;6.60;;;2.90;;
68398;SDS011;56258;52.196;13.868;2022-07-26T00:35:01;6.82;;;3.20;;
68398;SDS011;56258;52.196;13.868;2022-07-26T00:37:27;5.88;;;2.95;;
68398;SDS011;56258;52.196;13.868;2022-07-26T00:39:54;6.32;;;3.28;;
68398;SDS011;56258;52.196;13.868;2022-07-26T00:42:21;6.10;;;3.00;;
68398;SDS011;56258;52.196;13.868;2022-07-26T00:44:48;5.97;;;3.10;;
68398;SDS011;56258;52.196;13.868;2022-07-26T00:47:15;6.22;;;3.13;;
68398;SDS011;56258;52.196;13.868;2022-07-26T00:49:42;6.72;;;3.13;;
68398;SDS011;56258;52.196;13.868;2022-07-26T00:52:09;5.93;;;3.05;;
68398;SDS011;56258;52.196;13.868;2022-07-26T00:54:37;6.13;;;3.17;;
68398;SDS011;56258;52.196;13.868;2022-07-26T00:57:05;5.90;;;2.90;;
68398;SDS011;56258;52.196;13.868;2022-07-26T00:59:32;6.07;;;3.00;;
68398;SDS011;56258;52.196;13.868;2022-07-26T01:01:58;6.60;;;3.28;;
68398;SDS011;56258;52.196;13.868;2022-07-26T01:04:26;6.20;;;3.13;;
68398;SDS011;56258;52.196;13.868;2022-07-26T01:06:53;6.18;;;3.30;;
68398;SDS011;56258;52.196;13.868;2022-07-26T01:09:20;6.10;;;2.57;;
68398;SDS011;56258;52.196;13.868;2022-07-26T01:11:47;6.35;;;3.40;;
68398;SDS011;56258;52.196;13.868;2022-07-26T01:14:14;6.82;;;3.17;;
68398;SDS011;56258;52.196;13.868;2022-07-26T01:16:44;5.95;;;3.05;;
68398;SDS011;56258;52.196;13.868;2022-07-26T01:19:11;5.85;;;3.05;;
68398;SDS011;56258;52.196;13.868;2022-07-26T01:21:38;6.10;;;3.00;;
68398;SDS011;56258;52.196;13.868;2022-07-26T01:24:04;7.13;;;3.50;;
68398;SDS011;56258;52.196;13.868;2022-07-26T01:26:32;6.97;;;2.78;;
68398;SDS011;56258;52.196;13.868;2022-07-26T01:28:59;5.80;;;2.80;;
68398;SDS011;56258;52.196;13.868;2022-07-26T01:31:25;6.20;;;3.03;;
68398;SDS011;56258;52.196;13.868;2022-07-26T01:33:52;6.40;;;3.20;;
68398;SDS011;56258;52.196;13.868;2022-07-26T01:36:19;5.95;;;2.75;;
68398;SDS011;56258;52.196;13.868;2022-07-26T01:38:46;6.20;;;2.95;;
68398;SDS011;56258;52.196;13.868;2022-07-26T01:41:13;5.75;;;2.90;;
68398;SDS011;56258;52.196;13.868;2022-07-26T01:43:40;6.05;;;3.08;;
68398;SDS011;56258;52.196;13.868;2022-07-26T01:46:07;5.60;;;2.87;;
68398;SDS011;56258;52.196;13.868;2022-07-26T01:48:35;5.95;;;2.72;;
68398;SDS011;56258;52.196;13.868;2022-07-26T01:51:02;6.45;;;2.70;;
68398;SDS011;56258;52.196;13.868;2022-07-26T01:53:29;6.00;;;2.88;;
68398;SDS011;56258;52.196;13.868;2022-07-26T01:55:56;5.75;;;2.65;;
68398;SDS011;56258;52.196;13.868;2022-07-26T01:58:22;6.27;;;3.20;;
68398;SDS011;56258;52.196;13.868;2022-07-26T02:00:49;5.72;;;2.83;;
68398;SDS011;56258;52.196;13.868;2022-07-26T02:03:16;6.15;;;3.08;;
68398;SDS011;56258;52.196;13.868;2022-07-26T02:05:43;5.57;;;2.42;;
68398;SDS011;56258;52.196;13.868;2022-07-26T02:08:10;5.95;;;3.00;;
68398;SDS011;56258;52.196;13.868;2022-07-26T02:10:37;6.57;;;2.90;;
68398;SDS011;56258;52.196;13.868;2022-07-26T02:13:23;5.70;;;2.85;;
68398;SDS011;56258;52.196;13.868;2022-07-26T02:15:50;5.93;;;2.90;;
68398;SDS011;56258;52.196;13.868;2022-07-26T02:18:17;6.45;;;2.97;;
68398;SDS011;56258;52.196;13.868;2022-07-26T02:20:43;5.65;;;2.80;;
68398;SDS011;56258;52.196;13.868;2022-07-26T02:23:10;6.73;;;2.87;;
68398;SDS011;56258;52.196;13.868;2022-07-26T02:25:37;6.75;;;3.00;;
68398;SDS011;56258;52.196;13.868;2022-07-26T02:28:04;5.90;;;2.70;;
68398;SDS011;56258;52.196;13.868;2022-07-26T02:30:31;6.45;;;2.78;;
68398;SDS011;56258;52.196;13.868;2022-07-26T02:32:58;6.20;;;3.13;;
68398;SDS011;56258;52.196;13.868;2022-07-26T02:35:25;6.00;;;3.10;;
68398;SDS011;56258;52.196;13.868;2022-07-26T02:37:52;6.40;;;3.20;;
68398;SDS011;56258;52.196;13.868;2022-07-26T02:40:19;5.78;;;2.85;;
68398;SDS011;56258;52.196;13.868;2022-07-26T02:42:45;6.95;;;2.78;;
68398;SDS011;56258;52.196;13.868;2022-07-26T02:45:12;5.68;;;2.60;;
68398;SDS011;56258;52.196;13.868;2022-07-26T02:47:45;6.80;;;2.97;;
68398;SDS011;56258;52.196;13.868;2022-07-26T02:50:16;6.00;;;2.88;;
68398;SDS011;56258;52.196;13.868;2022-07-26T02:52:44;6.03;;;2.55;;
68398;SDS011;56258;52.196;13.868;2022-07-26T02:55:14;5.53;;;2.78;;
68398;SDS011;56258;52.196;13.868;2022-07-26T02:57:42;6.32;;;2.95;;
68398;SDS011;56258;52.196;13.868;2022-07-26T03:00:13;6.37;;;2.90;;
68398;SDS011;56258;52.196;13.868;2022-07-26T03:02:41;5.38;;;2.47;;
68398;SDS011;56258;52.196;13.868;2022-07-26T03:05:09;5.97;;;3.05;;
68398;SDS011;56258;52.196;13.868;2022-07-26T03:07:36;5.97;;;2.67;;
68398;SDS011;56258;52.196;13.868;2022-07-26T03:10:03;6.28;;;3.20;;
68398;SDS011;56258;52.196;13.868;2022-07-26T03:12:31;5.77;;;2.83;;
68398;SDS011;56258;52.196;13.868;2022-07-26T03:14:57;5.93;;;2.60;;
68398;SDS011;56258;52.196;13.868;2022-07-26T03:17:24;6.10;;;3.03;;
68398;SDS011;56258;52.196;13.868;2022-07-26T03:19:51;6.18;;;2.80;;
68398;SDS011;56258;52.196;13.868;2022-07-26T03:22:17;5.75;;;2.53;;
68398;SDS011;56258;52.196;13.868;2022-07-26T03:24:44;6.27;;;2.60;;
68398;SDS011;56258;52.196;13.868;2022-07-26T03:27:11;6.00;;;3.05;;
68398;SDS011;56258;52.196;13.868;2022-07-26T03:29:38;6.18;;;2.60;;
68398;SDS011;56258;52.196;13.868;2022-07-26T03:32:04;6.03;;;2.50;;
68398;SDS011;56258;52.196;13.868;2022-07-26T03:34:31;5.30;;;2.42;;
68398;SDS011;56258;52.196;13.868;2022-07-26T03:36:58;6.10;;;2.93;;
68398;SDS011;56258;52.196;13.868;2022-07-26T03:39:25;5.85;;;2.70;;
68398;SDS011;56258;52.196;13.868;2022-07-26T03:41:52;5.78;;;2.53;;
68398;SDS011;56258;52.196;13.868;2022-07-26T03:44:18;5.55;;;2.28;;
68398;SDS011;56258;52.196;13.868;2022-07-26T03:46:45;5.90;;;2.83;;
68398;SDS011;56258;52.196;13.868;2022-07-26T03:49:12;6.97;;;2.63;;
68398;SDS011;56258;52.196;13.868;2022-07-26T03:51:42;5.80;;;2.80;;
68398;SDS011;56258;52.196;13.868;2022-07-26T03:54:09;6.53;;;2.95;;
68398;SDS011;56258;52.196;13.868;2022-07-26T03:56:36;5.50;;;2.58;;
68398;SDS011;56258;52.196;13.868;2022-07-26T03:59:04;5.50;;;2.47;;
68398;SDS011;56258;52.196;13.868;2022-07-26T04:01:32;5.93;;;2.80;;
68398;SDS011;56258;52.196;13.868;2022-07-26T04:04:02;5.60;;;2.85;;
68398;SDS011;56258;52.196;13.868;2022-07-26T04:06:30;5.40;;;2.60;;
68398;SDS011;56258;52.196;13.868;2022-07-26T04:08:56;5.93;;;2.75;;
68398;SDS011;56258;52.196;13.868;2022-07-26T04:11:23;5.88;;;2.65;;
68398;SDS011;56258;52.196;13.868;2022-07-26T04:13:53;6.47;;;2.70;;
68398;SDS011;56258;52.196;13.868;2022-07-26T04:16:20;5.57;;;2.85;;
68398;SDS011;56258;52.196;13.868;2022-07-26T04:18:47;5.95;;;2.67;;
68398;SDS011;56258;52.196;13.868;2022-07-26T04:21:14;5.95;;;2.35;;
68398;SDS011;56258;52.196;13.868;2022-07-26T04:23:40;7.43;;;3.10;;
68398;SDS011;56258;52.196;13.868;2022-07-26T04:26:10;6.77;;;3.10;;
68398;SDS011;56258;52.196;13.868;2022-07-26T04:28:39;5.80;;;2.85;;
68398;SDS011;56258;52.196;13.868;2022-07-26T04:31:06;6.72;;;3.00;;
68398;SDS011;56258;52.196;13.868;2022-07-26T04:33:34;6.45;;;2.95;;
68398;SDS011;56258;52.196;13.868;2022-07-26T04:36:01;6.07;;;2.90;;
68398;SDS011;56258;52.196;13.868;2022-07-26T04:38:28;6.40;;;3.13;;
68398;SDS011;56258;52.196;13.868;2022-07-26T04:40:55;6.28;;;2.75;;
68398;SDS011;56258;52.196;13.868;2022-07-26T04:43:23;6.07;;;2.90;;
68398;SDS011;56258;52.196;13.868;2022-07-26T04:45:50;7.60;;;2.90;;
68398;SDS011;56258;52.196;13.868;2022-07-26T04:48:17;6.20;;;2.88;;
68398;SDS011;56258;52.196;13.868;2022-07-26T04:50:44;5.77;;;2.70;;
68398;SDS011;56258;52.196;13.868;2022-07-26T04:53:11;6.57;;;3.15;;
68398;SDS011;56258;52.196;13.868;2022-07-26T04:55:38;6.97;;;3.10;;
68398;SDS011;56258;52.196;13.868;2022-07-26T04:58:05;6.57;;;3.22;;
68398;SDS011;56258;52.196;13.868;2022-07-26T05:00:33;6.97;;;3.35;;
68398;SDS011;56258;52.196;13.868;2022-07-26T05:03:20;6.03;;;2.90;;
68398;SDS011;56258;52.196;13.868;2022-07-26T05:05:50;6.40;;;3.08;;
68398;SDS011;56258;52.196;13.868;2022-07-26T05:08:16;6.47;;;2.90;;
68398;SDS011;56258;52.196;13.868;2022-07-26T05:10:43;5.72;;;2.70;;
68398;SDS011;56258;52.196;13.868;2022-07-26T05:13:10;6.88;;;3.10;;
68398;SDS011;56258;52.196;13.868;2022-07-26T05:15:37;5.80;;;3.00;;
68398;SDS011;56258;52.196;13.868;2022-07-26T05:18:04;6.28;;;2.63;;
68398;SDS011;56258;52.196;13.868;2022-07-26T05:20:35;6.30;;;2.80;;
68398;SDS011;56258;52.196;13.868;2022-07-26T05:23:03;5.85;;;2.78;;
68398;SDS011;56258;52.196;13.868;2022-07-26T05:25:30;6.50;;;3.10;;
68398;SDS011;56258;52.196;13.868;2022-07-26T05:27:57;6.37;;;3.00;;
68398;SDS011;56258;52.196;13.868;2022-07-26T05:30:23;7.47;;;2.90;;
68398;SDS011;56258;52.196;13.868;2022-07-26T05:32:50;6.90;;;3.35;;
68398;SDS011;56258;52.196;13.868;2022-07-26T05:35:17;5.97;;;3.08;;
68398;SDS011;56258;52.196;13.868;2022-07-26T05:37:43;6.40;;;3.05;;
68398;SDS011;56258;52.196;13.868;2022-07-26T05:40:10;6.53;;;3.17;;
68398;SDS011;56258;52.196;13.868;2022-07-26T05:42:37;6.35;;;2.58;;
68398;SDS011;56258;52.196;13.868;2022-07-26T05:45:04;6.15;;;3.10;;
68398;SDS011;56258;52.196;13.868;2022-07-26T05:47:31;7.75;;;2.85;;
68398;SDS011;56258;52.196;13.868;2022-07-26T05:49:58;6.93;;;2.90;;
68398;SDS011;56258;52.196;13.868;2022-07-26T05:52:25;6.17;;;3.03;;
68398;SDS011;56258;52.196;13.868;2022-07-26T05:54:52;6.18;;;2.67;;
68398;SDS011;56258;52.196;13.868;2022-07-26T05:57:19;5.80;;;2.70;;
68398;SDS011;56258;52.196;13.868;2022-07-26T05:59:45;6.18;;;2.60;;
68398;SDS011;56258;52.196;13.868;2022-07-26T06:02:12;6.68;;;2.50;;
68398;SDS011;56258;52.196;13.868;2022-07-26T06:04:39;6.60;;;2.93;;
68398;SDS011;56258;52.196;13.868;2022-07-26T06:07:05;6.18;;;2.80;;
68398;SDS011;56258;52.196;13.868;2022-07-26T06:09:33;7.40;;;3.00;;
68398;SDS011;56258;52.196;13.868;2022-07-26T06:11:59;6.30;;;2.70;;
68398;SDS011;56258;52.196;13.868;2022-07-26T06:14:26;6.00;;;2.55;;
68398;SDS011;56258;52.196;13.868;2022-07-26T06:16:53;6.10;;;3.00;;
68398;SDS011;56258;52.196;13.868;2022-07-26T06:19:20;6.35;;;2.65;;
68398;SDS011;56258;52.196;13.868;2022-07-26T06:21:47;6.97;;;2.88;;
68398;SDS011;56258;52.196;13.868;2022-07-26T06:24:14;6.30;;;2.75;;
68398;SDS011;56258;52.196;13.868;2022-07-26T06:26:41;6.45;;;2.63;;
68398;SDS011;56258;52.196;13.868;2022-07-26T06:29:08;7.00;;;2.73;;
68398;SDS011;56258;52.196;13.868;2022-07-26T06:31:34;6.75;;;2.63;;
68398;SDS011;56258;52.196;13.868;2022-07-26T06:34:01;6.03;;;2.60;;
68398;SDS011;56258;52.196;13.868;2022-07-26T06:36:28;5.80;;;2.72;;
68398;SDS011;56258;52.196;13.868;2022-07-26T06:38:56;5.80;;;2.78;;
68398;SDS011;56258;52.196;13.868;2022-07-26T06:41:23;6.07;;;2.60;;
68398;SDS011;56258;52.196;13.868;2022-07-26T06:43:50;5.95;;;2.67;;
68398;SDS011;56258;52.196;13.868;2022-07-26T06:46:17;5.30;;;2.40;;
68398;SDS011;56258;52.196;13.868;2022-07-26T06:48:46;5.85;;;2.95;;
68398;SDS011;56258;52.196;13.868;2022-07-26T06:51:18;6.15;;;2.85;;
68398;SDS011;56258;52.196;13.868;2022-07-26T06:53:45;5.67;;;2.37;;
68398;SDS011;56258;52.196;13.868;2022-07-26T06:56:11;6.10;;;2.53;;
68398;SDS011;56258;52.196;13.868;2022-07-26T06:58:40;5.82;;;2.30;;
68398;SDS011;56258;52.196;13.868;2022-07-26T07:01:07;6.03;;;2.22;;
68398;SDS011;56258;52.196;13.868;2022-07-26T07:03:34;6.40;;;2.70;;
68398;SDS011;56258;52.196;13.868;2022-07-26T07:06:01;5.30;;;2.23;;
68398;SDS011;56258;52.196;13.868;2022-07-26T07:08:28;6.97;;;2.90;;
68398;SDS011;56258;52.196;13.868;2022-07-26T07:10:54;5.97;;;2.45;;
68398;SDS011;56258;52.196;13.868;2022-07-26T07:13:21;6.15;;;2.35;;
68398;SDS011;56258;52.196;13.868;2022-07-26T07:15:48;6.53;;;2.78;;
68398;SDS011;56258;52.196;13.868;2022-07-26T07:18:15;5.33;;;2.40;;
68398;SDS011;56258;52.196;13.868;2022-07-26T07:20:41;6.93;;;2.60;;
68398;SDS011;56258;52.196;13.868;2022-07-26T07:23:08;6.18;;;2.47;;
68398;SDS011;56258;52.196;13.868;2022-07-26T07:25:35;6.28;;;2.55;;
68398;SDS011;56258;52.196;13.868;2022-07-26T07:28:02;5.60;;;2.70;;
68398;SDS011;56258;52.196;13.868;2022-07-26T07:30:29;5.50;;;2.53;;
68398;SDS011;56258;52.196;13.868;2022-07-26T07:32:56;6.13;;;2.78;;
68398;SDS011;56258;52.196;13.868;2022-07-26T07:35:22;5.78;;;2.80;;
68398;SDS011;56258;52.196;13.868;2022-07-26T07:37:56;6.00;;;2.50;;
68398;SDS011;56258;52.196;13.868;2022-07-26T07:40:23;6.00;;;2.60;;
68398;SDS011;56258;52.196;13.868;2022-07-26T07:42:51;5.70;;;2.20;;
68398;SDS011;56258;52.196;13.868;2022-07-26T07:45:17;5.03;;;2.08;;
68398;SDS011;56258;52.196;13.868;2022-07-26T07:47:44;5.50;;;2.15;;
68398;SDS011;56258;52.196;13.868;2022-07-26T07:50:11;5.95;;;2.25;;
68398;SDS011;56258;52.196;13.868;2022-07-26T07:52:37;5.95;;;2.60;;
68398;SDS011;56258;52.196;13.868;2022-07-26T07:55:05;5.93;;;2.30;;
68398;SDS011;56258;52.196;13.868;2022-07-26T07:57:53;5.63;;;2.38;;
68398;SDS011;56258;52.196;13.868;2022-07-26T08:00:19;5.78;;;2.35;;
68398;SDS011;56258;52.196;13.868;2022-07-26T08:02:52;5.88;;;2.42;;
68398;SDS011;56258;52.196;13.868;2022-07-26T08:05:19;4.95;;;2.30;;
68398;SDS011;56258;52.196;13.868;2022-07-26T08:07:48;6.13;;;2.53;;
68398;SDS011;56258;52.196;13.868;2022-07-26T08:10:17;5.72;;;2.60;;
68398;SDS011;56258;52.196;13.868;2022-07-26T08:12:46;6.28;;;2.25;;
68398;SDS011;56258;52.196;13.868;2022-07-26T08:15:16;5.18;;;2.40;;
68398;SDS011;56258;52.196;13.868;2022-07-26T08:17:46;5.75;;;2.50;;
68398;SDS011;56258;52.196;13.868;2022-07-26T08:20:20;5.40;;;2.07;;
68398;SDS011;56258;52.196;13.868;2022-07-26T08:22:50;5.18;;;2.08;;
68398;SDS011;56258;52.196;13.868;2022-07-26T08:25:17;5.53;;;2.10;;
68398;SDS011;56258;52.196;13.868;2022-07-26T08:27:43;7.15;;;2.40;;
68398;SDS011;56258;52.196;13.868;2022-07-26T08:30:28;5.30;;;2.45;;
68398;SDS011;56258;52.196;13.868;2022-07-26T08:32:54;6.00;;;2.30;;
68398;SDS011;56258;52.196;13.868;2022-07-26T08:35:21;5.90;;;2.05;;
68398;SDS011;56258;52.196;13.868;2022-07-26T08:37:48;5.05;;;2.17;;
68398;SDS011;56258;52.196;13.868;2022-07-26T08:40:15;6.10;;;2.30;;
68398;SDS011;56258;52.196;13.868;2022-07-26T08:42:51;5.20;;;2.15;;
68398;SDS011;56258;52.196;13.868;2022-07-26T08:45:23;5.50;;;2.33;;
68398;SDS011;56258;52.196;13.868;2022-07-26T08:47:51;5.50;;;2.08;;
68398;SDS011;56258;52.196;13.868;2022-07-26T08:50:39;5.72;;;2.08;;
68398;SDS011;56258;52.196;13.868;2022-07-26T08:53:06;4.95;;;1.95;;
68398;SDS011;56258;52.196;13.868;2022-07-26T08:55:34;5.80;;;2.22;;
68398;SDS011;56258;52.196;13.868;2022-07-26T08:58:21;5.50;;;2.10;;
68398;SDS011;56258;52.196;13.868;2022-07-26T09:01:01;5.40;;;2.15;;
68398;SDS011;56258;52.196;13.868;2022-07-26T09:03:38;6.13;;;2.00;;
68398;SDS011;56258;52.196;13.868;2022-07-26T09:06:19;5.30;;;2.30;;
68398;SDS011;56258;52.196;13.868;2022-07-26T09:08:51;5.55;;;2.30;;
68398;SDS011;56258;52.196;13.868;2022-07-26T09:16:27;5.40;;;1.92;;
68398;SDS011;56258;52.196;13.868;2022-07-26T09:18:55;4.80;;;1.90;;
68398;SDS011;56258;52.196;13.868;2022-07-26T09:21:41;5.07;;;1.98;;
68398;SDS011;56258;52.196;13.868;2022-07-26T09:24:08;5.27;;;2.50;;
68398;SDS011;56258;52.196;13.868;2022-07-26T09:26:35;5.63;;;2.22;;
68398;SDS011;56258;52.196;13.868;2022-07-26T09:29:07;6.80;;;1.90;;
68398;SDS011;56258;52.196;13.868;2022-07-26T09:31:37;4.97;;;1.98;;
68398;SDS011;56258;52.196;13.868;2022-07-26T09:34:05;4.93;;;2.10;;
68398;SDS011;56258;52.196;13.868;2022-07-26T09:36:36;5.30;;;2.10;;
68398;SDS011;56258;52.196;13.868;2022-07-26T09:39:18;5.85;;;2.10;;
68398;SDS011;56258;52.196;13.868;2022-07-26T09:42:05;5.00;;;2.33;;
68398;SDS011;56258;52.196;13.868;2022-07-26T09:44:54;4.78;;;2.05;;
68398;SDS011;56258;52.196;13.868;2022-07-26T09:47:22;5.07;;;2.00;;
68398;SDS011;56258;52.196;13.868;2022-07-26T09:50:08;4.90;;;1.97;;
68398;SDS011;56258;52.196;13.868;2022-07-26T09:52:55;5.00;;;2.03;;
68398;SDS011;56258;52.196;13.868;2022-07-26T09:55:29;5.50;;;1.98;;
68398;SDS011;56258;52.196;13.868;2022-07-26T09:58:10;4.90;;;2.08;;
68398;SDS011;56258;52.196;13.868;2022-07-26T10:00:39;4.75;;;1.88;;
68398;SDS011;56258;52.196;13.868;2022-07-26T10:03:06;5.80;;;2.27;;
68398;SDS011;56258;52.196;13.868;2022-07-26T10:05:33;5.53;;;1.80;;
68398;SDS011;56258;52.196;13.868;2022-07-26T10:08:01;5.57;;;1.80;;
68398;SDS011;56258;52.196;13.868;2022-07-26T10:10:32;4.60;;;1.80;;
68398;SDS011;56258;52.196;13.868;2022-07-26T10:13:04;4.72;;;2.00;;
68398;SDS011;56258;52.196;13.868;2022-07-26T10:15:39;4.90;;;1.90;;
68398;SDS011;56258;52.196;13.868;2022-07-26T10:23:49;5.22;;;2.00;;
68398;SDS011;56258;52.196;13.868;2022-07-26T10:31:44;4.82;;;1.70;;
68398;SDS011;56258;52.196;13.868;2022-07-26T10:37:00;5.10;;;2.00;;
68398;SDS011;56258;52.196;13.868;2022-07-26T10:39:29;4.82;;;1.90;;
68398;SDS011;56258;52.196;13.868;2022-07-26T10:41:56;4.70;;;1.80;;
68398;SDS011;56258;52.196;13.868;2022-07-26T10:49:39;5.38;;;1.98;;
68398;SDS011;56258;52.196;13.868;2022-07-26T10:57:31;4.90;;;1.40;;
68398;SDS011;56258;52.196;13.868;2022-07-26T11:00:07;5.70;;;1.75;;
68398;SDS011;56258;52.196;13.868;2022-07-26T11:02:52;4.22;;;1.33;;
68398;SDS011;56258;52.196;13.868;2022-07-26T11:05:24;4.70;;;1.73;;
68398;SDS011;56258;52.196;13.868;2022-07-26T11:08:00;4.30;;;1.40;;
68398;SDS011;56258;52.196;13.868;2022-07-26T11:10:32;5.13;;;1.67;;
68398;SDS011;56258;52.196;13.868;2022-07-26T11:15:39;5.32;;;1.60;;
68398;SDS011;56258;52.196;13.868;2022-07-26T11:20:43;5.33;;;1.83;;
68398;SDS011;56258;52.196;13.868;2022-07-26T11:23:24;4.60;;;1.60;;
68398;SDS011;56258;52.196;13.868;2022-07-26T11:26:00;4.40;;;1.58;;
68398;SDS011;56258;52.196;13.868;2022-07-26T11:28:41;4.47;;;1.45;;
68398;SDS011;56258;52.196;13.868;2022-07-26T11:31:14;4.97;;;1.60;;
68398;SDS011;56258;52.196;13.868;2022-07-26T11:33:46;4.00;;;1.30;;
68398;SDS011;56258;52.196;13.868;2022-07-26T11:36:17;4.68;;;1.58;;
68398;SDS011;56258;52.196;13.868;2022-07-26T11:38:56;4.45;;;1.40;;
68398;SDS011;56258;52.196;13.868;2022-07-26T11:41:27;4.50;;;1.50;;
68398;SDS011;56258;52.196;13.868;2022-07-26T11:44:00;4.63;;;1.50;;
68398;SDS011;56258;52.196;13.868;2022-07-26T11:46:45;4.50;;;1.60;;
68398;SDS011;56258;52.196;13.868;2022-07-26T11:49:21;4.70;;;1.50;;
68398;SDS011;56258;52.196;13.868;2022-07-26T11:52:09;5.15;;;1.90;;
68398;SDS011;56258;52.196;13.868;2022-07-26T11:54:44;4.53;;;1.58;;
68398;SDS011;56258;52.196;13.868;2022-07-26T11:57:16;4.57;;;1.63;;
68398;SDS011;56258;52.196;13.868;2022-07-26T11:59:44;4.73;;;1.37;;
68398;SDS011;56258;52.196;13.868;2022-07-26T12:02:13;4.57;;;1.50;;
68398;SDS011;56258;52.196;13.868;2022-07-26T12:04:40;4.40;;;1.48;;
68398;SDS011;56258;52.196;13.868;2022-07-26T12:07:10;4.93;;;1.90;;
68398;SDS011;56258;52.196;13.868;2022-07-26T12:09:39;4.40;;;1.80;;
68398;SDS011;56258;52.196;13.868;2022-07-26T12:12:26;4.87;;;1.90;;
68398;SDS011;56258;52.196;13.868;2022-07-26T12:15:03;4.32;;;1.50;;
68398;SDS011;56258;52.196;13.868;2022-07-26T12:17:32;4.32;;;1.55;;
68398;SDS011;56258;52.196;13.868;2022-07-26T12:20:10;4.05;;;1.35;;
68398;SDS011;56258;52.196;13.868;2022-07-26T12:22:52;4.65;;;1.45;;
68398;SDS011;56258;52.196;13.868;2022-07-26T12:25:24;4.57;;;1.27;;
68398;SDS011;56258;52.196;13.868;2022-07-26T12:27:52;4.50;;;1.30;;
68398;SDS011;56258;52.196;13.868;2022-07-26T12:30:19;5.15;;;1.30;;
68398;SDS011;56258;52.196;13.868;2022-07-26T12:32:46;4.30;;;1.17;;
68398;SDS011;56258;52.196;13.868;2022-07-26T12:35:17;4.43;;;1.35;;
68398;SDS011;56258;52.196;13.868;2022-07-26T12:37:54;4.27;;;1.30;;
68398;SDS011;56258;52.196;13.868;2022-07-26T12:40:23;4.50;;;1.38;;
68398;SDS011;56258;52.196;13.868;2022-07-26T12:45:26;5.13;;;1.20;;
68398;SDS011;56258;52.196;13.868;2022-07-26T12:47:55;4.75;;;1.55;;
68398;SDS011;56258;52.196;13.868;2022-07-26T12:50:23;5.40;;;1.60;;
68398;SDS011;56258;52.196;13.868;2022-07-26T12:52:51;4.40;;;1.05;;
68398;SDS011;56258;52.196;13.868;2022-07-26T12:55:26;4.88;;;1.40;;
68398;SDS011;56258;52.196;13.868;2022-07-26T12:57:52;4.80;;;1.13;;
68398;SDS011;56258;52.196;13.868;2022-07-26T13:00:22;4.53;;;1.38;;
68398;SDS011;56258;52.196;13.868;2022-07-26T13:02:50;3.77;;;1.30;;
68398;SDS011;56258;52.196;13.868;2022-07-26T13:05:18;4.75;;;1.30;;
68398;SDS011;56258;52.196;13.868;2022-07-26T13:07:44;6.35;;;1.48;;
68398;SDS011;56258;52.196;13.868;2022-07-26T13:10:11;5.28;;;1.48;;
68398;SDS011;56258;52.196;13.868;2022-07-26T13:12:58;4.43;;;1.20;;
68398;SDS011;56258;52.196;13.868;2022-07-26T13:15:25;4.57;;;1.30;;
68398;SDS011;56258;52.196;13.868;2022-07-26T13:18:06;4.45;;;1.20;;
68398;SDS011;56258;52.196;13.868;2022-07-26T13:20:37;4.68;;;1.10;;
68398;SDS011;56258;52.196;13.868;2022-07-26T13:23:05;4.38;;;1.40;;
68398;SDS011;56258;52.196;13.868;2022-07-26T13:25:38;4.75;;;1.25;;
68398;SDS011;56258;52.196;13.868;2022-07-26T13:28:06;4.10;;;1.10;;
68398;SDS011;56258;52.196;13.868;2022-07-26T13:30:34;4.43;;;1.20;;
68398;SDS011;56258;52.196;13.868;2022-07-26T13:33:03;4.00;;;1.10;;
68398;SDS011;56258;52.196;13.868;2022-07-26T13:35:30;4.20;;;1.08;;
68398;SDS011;56258;52.196;13.868;2022-07-26T13:37:56;4.28;;;1.58;;
68398;SDS011;56258;52.196;13.868;2022-07-26T13:40:23;3.70;;;1.20;;
68398;SDS011;56258;52.196;13.868;2022-07-26T13:42:56;4.70;;;1.35;;
68398;SDS011;56258;52.196;13.868;2022-07-26T13:45:23;4.35;;;1.40;;
68398;SDS011;56258;52.196;13.868;2022-07-26T13:47:54;4.40;;;1.30;;
68398;SDS011;56258;52.196;13.868;2022-07-26T13:50:21;4.55;;;1.17;;
68398;SDS011;56258;52.196;13.868;2022-07-26T13:52:48;4.53;;;1.13;;
68398;SDS011;56258;52.196;13.868;2022-07-26T13:55:14;4.07;;;1.15;;
68398;SDS011;56258;52.196;13.868;2022-07-26T13:57:41;4.35;;;1.20;;
68398;SDS011;56258;52.196;13.868;2022-07-26T14:00:23;5.50;;;1.20;;
68398;SDS011;56258;52.196;13.868;2022-07-26T14:02:55;4.00;;;1.30;;
68398;SDS011;56258;52.196;13.868;2022-07-26T14:05:23;3.10;;;1.00;;
68398;SDS011;56258;52.196;13.868;2022-07-26T14:07:51;4.47;;;1.00;;
68398;SDS011;56258;52.196;13.868;2022-07-26T14:10:19;4.25;;;0.88;;
68398;SDS011;56258;52.196;13.868;2022-07-26T14:12:47;4.50;;;1.27;;
68398;SDS011;56258;52.196;13.868;2022-07-26T14:15:14;4.20;;;1.17;;
68398;SDS011;56258;52.196;13.868;2022-07-26T14:17:48;3.97;;;1.07;;
68398;SDS011;56258;52.196;13.868;2022-07-26T14:20:15;4.35;;;0.98;;
68398;SDS011;56258;52.196;13.868;2022-07-26T14:22:42;4.18;;;1.20;;
68398;SDS011;56258;52.196;13.868;2022-07-26T14:25:09;3.88;;;0.93;;
68398;SDS011;56258;52.196;13.868;2022-07-26T14:27:36;4.05;;;1.20;;
68398;SDS011;56258;52.196;13.868;2022-07-26T14:30:03;4.30;;;1.10;;
68398;SDS011;56258;52.196;13.868;2022-07-26T14:32:30;3.97;;;1.20;;
68398;SDS011;56258;52.196;13.868;2022-07-26T14:34:57;4.28;;;1.30;;
68398;SDS011;56258;52.196;13.868;2022-07-26T14:37:24;4.70;;;1.20;;
68398;SDS011;56258;52.196;13.868;2022-07-26T14:40:11;4.22;;;1.10;;
68398;SDS011;56258;52.196;13.868;2022-07-26T14:42:42;4.20;;;1.10;;
68398;SDS011;56258;52.196;13.868;2022-07-26T14:45:11;3.92;;;1.00;;
68398;SDS011;56258;52.196;13.868;2022-07-26T14:47:38;4.97;;;1.20;;
68398;SDS011;56258;52.196;13.868;2022-07-26T14:50:05;4.07;;;1.20;;
68398;SDS011;56258;52.196;13.868;2022-07-26T14:52:37;4.28;;;1.30;;
68398;SDS011;56258;52.196;13.868;2022-07-26T14:55:05;5.60;;;1.10;;
68398;SDS011;56258;52.196;13.868;2022-07-26T14:57:32;4.43;;;1.25;;
68398;SDS011;56258;52.196;13.868;2022-07-26T15:00:04;4.80;;;1.40;;
68398;SDS011;56258;52.196;13.868;2022-07-26T15:02:33;4.63;;;0.90;;
68398;SDS011;56258;52.196;13.868;2022-07-26T15:05:00;3.75;;;1.20;;
68398;SDS011;56258;52.196;13.868;2022-07-26T15:07:27;3.07;;;0.80;;
68398;SDS011;56258;52.196;13.868;2022-07-26T15:09:53;4.30;;;1.17;;
68398;SDS011;56258;52.196;13.868;2022-07-26T15:12:20;3.17;;;0.93;;
68398;SDS011;56258;52.196;13.868;2022-07-26T15:14:47;4.03;;;1.00;;
68398;SDS011;56258;52.196;13.868;2022-07-26T15:17:14;3.63;;;0.95;;
68398;SDS011;56258;52.196;13.868;2022-07-26T15:19:40;5.07;;;1.17;;
68398;SDS011;56258;52.196;13.868;2022-07-26T15:22:07;3.75;;;1.05;;